sensor_id;sensor_type;location;lat;lon;timestamp;pressure;altitude;pressure_sealevel;temperature;humidity
9525;BME280;15940;48.734;9.112;2023-04-22T00:02:16;95957.91;;;10.74;68.93
9525;BME280;15940;48.734;9.112;2023-04-22T00:04:44;95953.75;;;10.73;68.75
9525;BME280;15940;48.734;9.112;2023-04-22T00:07:12;95952.50;;;10.74;68.71
9525;BME280;15940;48.734;9.112;2023-04-22T00:09:40;95953.75;;;10.73;68.51
9525;BME280;15940;48.734;9.112;2023-04-22T00:12:09;95949.56;;;10.72;68.62
9525;BME280;15940;48.734;9.112;2023-04-22T00:14:37;95953.75;;;10.73;68.62
9525;BME280;15940;48.734;9.112;2023-04-22T00:17:04;95951.53;;;10.72;68.85
9525;BME280;15940;48.734;9.112;2023-04-22T00:19:31;95954.25;;;10.72;68.45
9525;BME280;15940;48.734;9.112;2023-04-22T00:21:59;95945.38;;;10.71;68.74
9525;BME280;15940;48.734;9.112;2023-04-22T00:24:25;95949.56;;;10.72;69.12
9525;BME280;15940;48.734;9.112;2023-04-22T00:26:52;95947.81;;;10.75;69.06
9525;BME280;15940;48.734;9.112;2023-04-22T00:29:21;95946.34;;;10.74;69.48
9525;BME280;15940;48.734;9.112;2023-04-22T00:31:48;95947.34;;;10.71;68.97
9525;BME280;15940;48.734;9.112;2023-04-22T00:34:15;95945.84;;;10.70;68.85
9525;BME280;15940;48.734;9.112;2023-04-22T00:39:00;95946.38;;;10.68;69.16
9525;BME280;15940;48.734;9.112;2023-04-22T00:41:27;95941.47;;;10.67;69.57
9525;BME280;15940;48.734;9.112;2023-04-22T00:43:56;95941.00;;;10.63;69.42
9525;BME280;15940;48.734;9.112;2023-04-22T00:46:24;95942.25;;;10.62;69.40
9525;BME280;15940;48.734;9.112;2023-04-22T00:48:52;95939.28;;;10.59;69.64
9525;BME280;15940;48.734;9.112;2023-04-22T00:51:18;95940.28;;;10.56;70.02
9525;BME280;15940;48.734;9.112;2023-04-22T00:53:45;95950.16;;;10.54;69.88
9525;BME280;15940;48.734;9.112;2023-04-22T00:56:14;95949.16;;;10.51;70.10
9525;BME280;15940;48.734;9.112;2023-04-22T00:58:41;95944.03;;;10.48;70.20
9525;BME280;15940;48.734;9.112;2023-04-22T01:01:09;95937.41;;;10.43;70.46
9525;BME280;15940;48.734;9.112;2023-04-22T01:03:38;95937.41;;;10.43;70.70
9525;BME280;15940;48.734;9.112;2023-04-22T01:06:06;95940.59;;;10.42;70.41
9525;BME280;15940;48.734;9.112;2023-04-22T01:08:33;95941.84;;;10.41;70.62
9525;BME280;15940;48.734;9.112;2023-04-22T01:11:01;95943.31;;;10.42;70.34
9525;BME280;15940;48.734;9.112;2023-04-22T01:13:30;95939.88;;;10.41;70.47
9525;BME280;15940;48.734;9.112;2023-04-22T01:15:57;95939.13;;;10.41;70.39
9525;BME280;15940;48.734;9.112;2023-04-22T01:18:26;95935.47;;;10.38;70.36
9525;BME280;15940;48.734;9.112;2023-04-22T01:20:53;95942.09;;;10.37;70.59
9525;BME280;15940;48.734;9.112;2023-04-22T01:23:22;95936.47;;;10.35;71.00
9525;BME280;15940;48.734;9.112;2023-04-22T01:25:49;95934.22;;;10.39;71.23
9525;BME280;15940;48.734;9.112;2023-04-22T01:28:16;95944.53;;;10.41;70.88
9525;BME280;15940;48.734;9.112;2023-04-22T01:30:43;95937.16;;;10.41;70.62
9525;BME280;15940;48.734;9.112;2023-04-22T01:33:11;95935.19;;;10.42;70.61
9525;BME280;15940;48.734;9.112;2023-04-22T01:37:52;95929.00;;;10.47;70.71
9525;BME280;15940;48.734;9.112;2023-04-22T01:40:22;95935.16;;;10.53;70.94
9525;BME280;15940;48.734;9.112;2023-04-22T01:45:12;95940.22;;;10.68;70.46
9525;BME280;15940;48.734;9.112;2023-04-22T01:47:42;95939.47;;;10.67;70.50
9525;BME280;15940;48.734;9.112;2023-04-22T01:50:09;95934.81;;;10.68;70.82
9525;BME280;15940;48.734;9.112;2023-04-22T01:52:36;95941.47;;;10.67;70.93
9525;BME280;15940;48.734;9.112;2023-04-22T01:55:04;95947.38;;;10.65;71.25
9525;BME280;15940;48.734;9.112;2023-04-22T01:57:31;95945.19;;;10.64;71.29
9525;BME280;15940;48.734;9.112;2023-04-22T01:59:58;95943.72;;;10.63;71.49
9525;BME280;15940;48.734;9.112;2023-04-22T02:02:27;95951.09;;;10.62;71.75
9525;BME280;15940;48.734;9.112;2023-04-22T02:04:54;95943.97;;;10.59;71.88
9525;BME280;15940;48.734;9.112;2023-04-22T02:07:20;95943.72;;;10.57;71.71
9525;BME280;15940;48.734;9.112;2023-04-22T02:09:48;95941.28;;;10.53;72.08
9525;BME280;15940;48.734;9.112;2023-04-22T02:12:15;95945.72;;;10.51;72.19
9525;BME280;15940;48.734;9.112;2023-04-22T02:14:42;95944.53;;;10.46;72.36
9525;BME280;15940;48.734;9.112;2023-04-22T02:17:09;95939.88;;;10.41;72.87
9525;BME280;15940;48.734;9.112;2023-04-22T02:19:40;95942.63;;;10.36;73.06
9525;BME280;15940;48.734;9.112;2023-04-22T02:22:07;95939.91;;;10.30;73.31
9525;BME280;15940;48.734;9.112;2023-04-22T02:24:34;95946.09;;;10.25;73.89
9525;BME280;15940;48.734;9.112;2023-04-22T02:27:00;95945.59;;;10.21;74.33
9525;BME280;15940;48.734;9.112;2023-04-22T02:29:27;95945.63;;;10.15;74.44
9525;BME280;15940;48.734;9.112;2023-04-22T02:31:57;95947.34;;;10.13;74.56
9525;BME280;15940;48.734;9.112;2023-04-22T02:34:24;95952.28;;;10.09;74.64
9525;BME280;15940;48.734;9.112;2023-04-22T02:36:52;95953.75;;;10.04;74.94
9525;BME280;15940;48.734;9.112;2023-04-22T02:39:19;95950.09;;;10.01;75.13
9525;BME280;15940;48.734;9.112;2023-04-22T02:41:46;95945.69;;;9.98;75.32
9525;BME280;15940;48.734;9.112;2023-04-22T02:44:12;95955.53;;;9.96;75.64
9525;BME280;15940;48.734;9.112;2023-04-22T02:46:39;95951.09;;;9.93;75.63
9525;BME280;15940;48.734;9.112;2023-04-22T02:49:06;95958.97;;;9.91;75.62
9525;BME280;15940;48.734;9.112;2023-04-22T02:51:33;95965.38;;;9.88;75.39
9525;BME280;15940;48.734;9.112;2023-04-22T02:54:01;95963.91;;;9.81;75.65
9525;BME280;15940;48.734;9.112;2023-04-22T02:56:28;95958.03;;;9.77;75.88
9525;BME280;15940;48.734;9.112;2023-04-22T02:58:56;95950.66;;;9.72;76.11
9525;BME280;15940;48.734;9.112;2023-04-22T03:01:23;95949.44;;;9.67;76.01
9525;BME280;15940;48.734;9.112;2023-04-22T03:03:50;95947.25;;;9.60;75.86
9525;BME280;15940;48.734;9.112;2023-04-22T03:06:16;95947.00;;;9.53;75.91
9525;BME280;15940;48.734;9.112;2023-04-22T03:08:43;95949.69;;;9.47;75.91
9525;BME280;15940;48.734;9.112;2023-04-22T03:11:11;95951.94;;;9.43;75.58
9525;BME280;15940;48.734;9.112;2023-04-22T03:13:38;95952.94;;;9.40;75.33
9525;BME280;15940;48.734;9.112;2023-04-22T03:16:06;95960.03;;;9.37;75.45
9525;BME280;15940;48.734;9.112;2023-04-22T03:18:33;95958.31;;;9.34;75.59
9525;BME280;15940;48.734;9.112;2023-04-22T03:21:00;95958.59;;;9.31;75.51
9525;BME280;15940;48.734;9.112;2023-04-22T03:23:27;95952.94;;;9.29;76.17
9525;BME280;15940;48.734;9.112;2023-04-22T03:25:54;95951.69;;;9.30;76.04
9525;BME280;15940;48.734;9.112;2023-04-22T03:28:22;95947.78;;;9.31;75.81
9525;BME280;15940;48.734;9.112;2023-04-22T03:30:49;95952.66;;;9.27;75.92
9525;BME280;15940;48.734;9.112;2023-04-22T03:33:17;95963.00;;;9.23;77.38
9525;BME280;15940;48.734;9.112;2023-04-22T03:35:46;95960.03;;;9.26;77.40
9525;BME280;15940;48.734;9.112;2023-04-22T03:38:13;95960.03;;;9.26;78.14
9525;BME280;15940;48.734;9.112;2023-04-22T03:40:41;95958.81;;;9.27;77.69
9525;BME280;15940;48.734;9.112;2023-04-22T03:43:08;95967.19;;;9.29;77.61
9525;BME280;15940;48.734;9.112;2023-04-22T03:45:36;95966.69;;;9.31;77.96
9525;BME280;15940;48.734;9.112;2023-04-22T03:48:04;95967.66;;;9.33;77.69
9525;BME280;15940;48.734;9.112;2023-04-22T03:50:31;95975.03;;;9.33;77.81
9525;BME280;15940;48.734;9.112;2023-04-22T03:52:58;95975.53;;;9.31;77.65
9525;BME280;15940;48.734;9.112;2023-04-22T03:55:25;95968.88;;;9.27;78.07
9525;BME280;15940;48.734;9.112;2023-04-22T03:57:52;95975.03;;;9.22;77.87
9525;BME280;15940;48.734;9.112;2023-04-22T04:00:19;95972.56;;;9.18;78.06
9525;BME280;15940;48.734;9.112;2023-04-22T04:02:48;95969.38;;;9.14;77.97
9525;BME280;15940;48.734;9.112;2023-04-22T04:05:15;95968.63;;;9.08;78.15
9525;BME280;15940;48.734;9.112;2023-04-22T04:07:42;95974.78;;;9.03;78.27
9525;BME280;15940;48.734;9.112;2023-04-22T04:10:10;95962.47;;;8.96;78.83
9525;BME280;15940;48.734;9.112;2023-04-22T04:12:37;95961.00;;;8.95;78.91
9525;BME280;15940;48.734;9.112;2023-04-22T04:15:05;95959.53;;;8.94;79.04
9525;BME280;15940;48.734;9.112;2023-04-22T04:17:33;95962.75;;;8.93;79.42
9525;BME280;15940;48.734;9.112;2023-04-22T04:20:01;95966.16;;;8.87;79.60
9525;BME280;15940;48.734;9.112;2023-04-22T04:22:28;95964.94;;;8.83;79.59
9525;BME280;15940;48.734;9.112;2023-04-22T04:24:55;95964.91;;;8.77;79.41
9525;BME280;15940;48.734;9.112;2023-04-22T04:27:22;95954.13;;;8.77;79.70
9525;BME280;15940;48.734;9.112;2023-04-22T04:29:49;95959.03;;;8.79;79.63
9525;BME280;15940;48.734;9.112;2023-04-22T04:32:17;95958.53;;;8.80;79.73
9525;BME280;15940;48.734;9.112;2023-04-22T04:34:44;95959.78;;;8.85;79.42
9525;BME280;15940;48.734;9.112;2023-04-22T04:37:12;95954.63;;;8.87;79.29
9525;BME280;15940;48.734;9.112;2023-04-22T04:39:39;95954.63;;;8.93;78.88
9525;BME280;15940;48.734;9.112;2023-04-22T04:42:06;95954.13;;;8.94;79.03
9525;BME280;15940;48.734;9.112;2023-04-22T04:44:34;95955.38;;;8.93;78.54
9525;BME280;15940;48.734;9.112;2023-04-22T04:47:01;95951.94;;;8.93;78.39
9525;BME280;15940;48.734;9.112;2023-04-22T04:49:28;95950.44;;;8.97;78.02
9525;BME280;15940;48.734;9.112;2023-04-22T04:51:56;95946.53;;;9.04;76.74
9525;BME280;15940;48.734;9.112;2023-04-22T04:54:24;95952.44;;;9.19;75.95
9525;BME280;15940;48.734;9.112;2023-04-22T04:56:51;95944.06;;;9.28;75.96
9525;BME280;15940;48.734;9.112;2023-04-22T04:59:18;95948.00;;;9.33;76.29
9525;BME280;15940;48.734;9.112;2023-04-22T05:01:45;95947.75;;;9.36;76.20
9525;BME280;15940;48.734;9.112;2023-04-22T05:04:12;95947.75;;;9.36;75.60
9525;BME280;15940;48.734;9.112;2023-04-22T05:06:39;95938.16;;;9.47;75.19
9525;BME280;15940;48.734;9.112;2023-04-22T05:09:06;95934.72;;;9.57;74.17
9525;BME280;15940;48.734;9.112;2023-04-22T05:11:34;95941.34;;;9.62;73.64
9525;BME280;15940;48.734;9.112;2023-04-22T05:14:02;95940.84;;;9.69;73.42
9525;BME280;15940;48.734;9.112;2023-04-22T05:16:29;95940.06;;;9.74;73.32
9525;BME280;15940;48.734;9.112;2023-04-22T05:18:55;95934.44;;;9.78;73.86
9525;BME280;15940;48.734;9.112;2023-04-22T05:23:55;95944.72;;;9.85;73.34
9525;BME280;15940;48.734;9.112;2023-04-22T05:26:22;95947.41;;;9.90;73.31
9525;BME280;15940;48.734;9.112;2023-04-22T05:28:51;95951.09;;;9.98;72.60
9525;BME280;15940;48.734;9.112;2023-04-22T05:31:18;95955.50;;;10.07;72.74
9525;BME280;15940;48.734;9.112;2023-04-22T05:33:45;95957.94;;;10.11;73.03
9525;BME280;15940;48.734;9.112;2023-04-22T05:36:12;95955.44;;;10.18;73.05
9525;BME280;15940;48.734;9.112;2023-04-22T05:38:39;95960.84;;;10.29;72.92
9525;BME280;15940;48.734;9.112;2023-04-22T05:41:06;95967.44;;;10.40;72.53
9525;BME280;15940;48.734;9.112;2023-04-22T05:43:33;95965.19;;;10.49;72.23
9525;BME280;15940;48.734;9.112;2023-04-22T05:46:01;95960.72;;;10.57;71.79
9525;BME280;15940;48.734;9.112;2023-04-22T05:48:28;95965.59;;;10.65;71.73
9525;BME280;15940;48.734;9.112;2023-04-22T05:50:55;95958.41;;;10.73;71.80
9525;BME280;15940;48.734;9.112;2023-04-22T05:53:22;95959.59;;;10.83;71.92
9525;BME280;15940;48.734;9.112;2023-04-22T05:55:49;95966.44;;;10.90;71.69
9525;BME280;15940;48.734;9.112;2023-04-22T05:58:16;95965.63;;;11.00;71.33
9525;BME280;15940;48.734;9.112;2023-04-22T06:00:43;95970.25;;;11.11;71.76
9525;BME280;15940;48.734;9.112;2023-04-22T06:03:12;95962.75;;;11.23;71.14
9525;BME280;15940;48.734;9.112;2023-04-22T06:05:39;95962.63;;;11.39;71.17
9525;BME280;15940;48.734;9.112;2023-04-22T06:08:06;95967.66;;;11.54;70.68
9525;BME280;15940;48.734;9.112;2023-04-22T06:10:33;95968.53;;;11.68;70.49
9525;BME280;15940;48.734;9.112;2023-04-22T06:13:00;95968.41;;;11.85;70.38
9525;BME280;15940;48.734;9.112;2023-04-22T06:15:27;95966.50;;;12.04;70.59
9525;BME280;15940;48.734;9.112;2023-04-22T06:17:54;95964.06;;;12.19;69.17
9525;BME280;15940;48.734;9.112;2023-04-22T06:20:23;95968.81;;;12.38;69.70
9525;BME280;15940;48.734;9.112;2023-04-22T06:22:50;95965.94;;;12.68;69.57
9525;BME280;15940;48.734;9.112;2023-04-22T06:25:17;95977.47;;;12.93;68.46
9525;BME280;15940;48.734;9.112;2023-04-22T06:27:44;95967.47;;;13.01;67.16
9525;BME280;15940;48.734;9.112;2023-04-22T06:30:11;95967.31;;;13.12;67.52
9525;BME280;15940;48.734;9.112;2023-04-22T06:32:38;95968.09;;;13.26;67.95
9525;BME280;15940;48.734;9.112;2023-04-22T06:35:07;95972.16;;;13.38;67.79
9525;BME280;15940;48.734;9.112;2023-04-22T06:37:35;95975.72;;;13.46;67.58
9525;BME280;15940;48.734;9.112;2023-04-22T06:40:03;95972.91;;;13.52;66.82
9525;BME280;15940;48.734;9.112;2023-04-22T06:42:30;95977.94;;;13.61;66.04
9525;BME280;15940;48.734;9.112;2023-04-22T06:44:56;95973.97;;;13.62;65.96
9525;BME280;15940;48.734;9.112;2023-04-22T06:47:23;95977.34;;;13.68;65.79
9525;BME280;15940;48.734;9.112;2023-04-22T06:49:50;95977.75;;;13.72;65.86
9525;BME280;15940;48.734;9.112;2023-04-22T06:52:17;95978.81;;;13.82;66.23
9525;BME280;15940;48.734;9.112;2023-04-22T06:54:46;95971.81;;;13.87;66.20
9525;BME280;15940;48.734;9.112;2023-04-22T06:57:13;95979.84;;;13.92;65.93
9525;BME280;15940;48.734;9.112;2023-04-22T06:59:39;95978.50;;;13.99;65.84
9525;BME280;15940;48.734;9.112;2023-04-22T07:02:06;95979.47;;;14.15;65.79
9525;BME280;15940;48.734;9.112;2023-04-22T07:04:34;95984.38;;;14.16;65.22
9525;BME280;15940;48.734;9.112;2023-04-22T07:07:01;95976.31;;;14.24;65.31
9525;BME280;15940;48.734;9.112;2023-04-22T07:09:28;95981.44;;;14.41;64.85
9525;BME280;15940;48.734;9.112;2023-04-22T07:11:56;95967.28;;;14.55;64.37
9525;BME280;15940;48.734;9.112;2023-04-22T07:14:24;95967.88;;;14.75;63.97
9525;BME280;15940;48.734;9.112;2023-04-22T07:16:51;95969.22;;;14.81;62.75
9525;BME280;15940;48.734;9.112;2023-04-22T07:19:19;95964.72;;;14.84;62.18
9525;BME280;15940;48.734;9.112;2023-04-22T07:21:46;95969.63;;;14.85;62.63
9525;BME280;15940;48.734;9.112;2023-04-22T07:24:13;95965.41;;;14.98;63.73
9525;BME280;15940;48.734;9.112;2023-04-22T07:26:41;95958.88;;;15.01;61.99
9525;BME280;15940;48.734;9.112;2023-04-22T07:29:09;95964.16;;;14.99;61.55
9525;BME280;15940;48.734;9.112;2023-04-22T07:31:37;95954.69;;;15.00;61.61
9525;BME280;15940;48.734;9.112;2023-04-22T07:34:04;95944.66;;;15.15;62.56
9525;BME280;15940;48.734;9.112;2023-04-22T07:36:31;95950.13;;;15.36;62.26
9525;BME280;15940;48.734;9.112;2023-04-22T07:38:58;95956.50;;;15.39;60.71
9525;BME280;15940;48.734;9.112;2023-04-22T07:41:25;95958.50;;;15.38;59.37
9525;BME280;15940;48.734;9.112;2023-04-22T07:43:52;95967.69;;;15.49;60.60
9525;BME280;15940;48.734;9.112;2023-04-22T07:46:21;95964.22;;;15.48;59.79
9525;BME280;15940;48.734;9.112;2023-04-22T07:48:48;95969.41;;;15.59;60.48
9525;BME280;15940;48.734;9.112;2023-04-22T07:51:15;95966.03;;;15.66;60.20
9525;BME280;15940;48.734;9.112;2023-04-22T07:53:42;95977.88;;;15.69;58.62
9525;BME280;15940;48.734;9.112;2023-04-22T07:56:09;95976.44;;;15.68;58.79
9525;BME280;15940;48.734;9.112;2023-04-22T07:58:36;95980.69;;;15.77;58.22
9525;BME280;15940;48.734;9.112;2023-04-22T08:01:03;95983.00;;;15.73;58.33
9525;BME280;15940;48.734;9.112;2023-04-22T08:03:32;95989.41;;;15.75;58.39
9525;BME280;15940;48.734;9.112;2023-04-22T08:05:59;95987.72;;;15.93;58.29
9525;BME280;15940;48.734;9.112;2023-04-22T08:08:25;95996.16;;;16.03;58.44
9525;BME280;15940;48.734;9.112;2023-04-22T08:10:52;95988.22;;;16.12;57.78
9525;BME280;15940;48.734;9.112;2023-04-22T08:13:19;95989.25;;;16.38;57.13
9525;BME280;15940;48.734;9.112;2023-04-22T08:15:46;95978.03;;;16.49;56.53
9525;BME280;15940;48.734;9.112;2023-04-22T08:18:13;95990.72;;;16.39;55.76
9525;BME280;15940;48.734;9.112;2023-04-22T08:20:42;95983.78;;;16.38;55.14
9525;BME280;15940;48.734;9.112;2023-04-22T08:23:08;95984.91;;;16.42;55.40
9525;BME280;15940;48.734;9.112;2023-04-22T08:25:35;95979.09;;;16.46;53.29
9525;BME280;15940;48.734;9.112;2023-04-22T08:28:02;95979.22;;;16.69;55.58
9525;BME280;15940;48.734;9.112;2023-04-22T08:30:29;95975.34;;;17.23;54.62
9525;BME280;15940;48.734;9.112;2023-04-22T08:32:56;95969.94;;;17.77;53.08
9525;BME280;15940;48.734;9.112;2023-04-22T08:35:23;95970.91;;;18.42;51.96
9525;BME280;15940;48.734;9.112;2023-04-22T08:37:52;95974.25;;;18.89;51.77
9525;BME280;15940;48.734;9.112;2023-04-22T08:40:19;95963.75;;;19.27;50.26
9525;BME280;15940;48.734;9.112;2023-04-22T08:42:46;95969.50;;;19.47;49.57
9525;BME280;15940;48.734;9.112;2023-04-22T08:45:13;95971.91;;;19.10;47.62
9525;BME280;15940;48.734;9.112;2023-04-22T08:47:42;95967.13;;;19.18;48.09
9525;BME280;15940;48.734;9.112;2023-04-22T08:50:09;95963.16;;;19.36;48.95
9525;BME280;15940;48.734;9.112;2023-04-22T08:52:36;95960.88;;;19.75;47.93
9525;BME280;15940;48.734;9.112;2023-04-22T08:55:06;95964.84;;;19.82;47.06
9525;BME280;15940;48.734;9.112;2023-04-22T08:59:50;95963.44;;;20.33;46.07
9525;BME280;15940;48.734;9.112;2023-04-22T09:02:20;95958.91;;;20.62;47.04
9525;BME280;15940;48.734;9.112;2023-04-22T09:04:49;95965.19;;;21.17;45.32
9525;BME280;15940;48.734;9.112;2023-04-22T09:07:22;95957.75;;;21.36;43.79
9525;BME280;15940;48.734;9.112;2023-04-22T09:09:49;95966.59;;;21.35;44.28
9525;BME280;15940;48.734;9.112;2023-04-22T09:12:17;95959.91;;;21.28;44.77
9525;BME280;15940;48.734;9.112;2023-04-22T09:14:44;95953.84;;;21.39;44.34
9525;BME280;15940;48.734;9.112;2023-04-22T09:17:15;95962.44;;;21.17;45.16
9525;BME280;15940;48.734;9.112;2023-04-22T09:19:43;95951.09;;;21.13;44.80
9525;BME280;15940;48.734;9.112;2023-04-22T09:22:11;95952.69;;;20.62;46.24
9525;BME280;15940;48.734;9.112;2023-04-22T09:24:42;95949.06;;;20.86;47.20
9525;BME280;15940;48.734;9.112;2023-04-22T09:27:10;95949.75;;;21.04;47.00
9525;BME280;15940;48.734;9.112;2023-04-22T09:29:37;95959.22;;;21.37;46.24
9525;BME280;15940;48.734;9.112;2023-04-22T09:32:09;95957.88;;;21.29;46.79
9525;BME280;15940;48.734;9.112;2023-04-22T09:34:48;95959.34;;;21.39;44.02
9525;BME280;15940;48.734;9.112;2023-04-22T09:37:18;95951.78;;;21.30;41.68
9525;BME280;15940;48.734;9.112;2023-04-22T09:39:48;95963.00;;;21.15;42.38
9525;BME280;15940;48.734;9.112;2023-04-22T09:42:15;95945.28;;;21.08;40.61
9525;BME280;15940;48.734;9.112;2023-04-22T09:44:44;95944.19;;;20.94;41.72
9525;BME280;15940;48.734;9.112;2023-04-22T09:47:12;95942.00;;;20.93;40.98
9525;BME280;15940;48.734;9.112;2023-04-22T09:49:39;95948.59;;;21.07;42.14
9525;BME280;15940;48.734;9.112;2023-04-22T09:52:07;95948.06;;;21.45;41.89
9525;BME280;15940;48.734;9.112;2023-04-22T09:54:36;95946.34;;;21.50;42.27
9525;BME280;15940;48.734;9.112;2023-04-22T09:57:03;95937.91;;;21.94;42.46
9525;BME280;15940;48.734;9.112;2023-04-22T09:59:30;95939.00;;;22.37;41.23
9525;BME280;15940;48.734;9.112;2023-04-22T10:01:59;95929.66;;;22.62;40.99
9525;BME280;15940;48.734;9.112;2023-04-22T10:04:29;95923.38;;;22.80;40.61
9525;BME280;15940;48.734;9.112;2023-04-22T10:06:56;95926.38;;;23.14;39.69
9525;BME280;15940;48.734;9.112;2023-04-22T10:09:25;95919.25;;;23.51;39.54
9525;BME280;15940;48.734;9.112;2023-04-22T10:11:55;95919.63;;;23.57;36.76
9525;BME280;15940;48.734;9.112;2023-04-22T10:14:23;95915.34;;;23.45;34.75
9525;BME280;15940;48.734;9.112;2023-04-22T10:16:55;95919.53;;;23.15;34.83
9525;BME280;15940;48.734;9.112;2023-04-22T10:19:25;95921.34;;;23.41;33.92
9525;BME280;15940;48.734;9.112;2023-04-22T10:21:56;95920.66;;;23.21;33.35
9525;BME280;15940;48.734;9.112;2023-04-22T10:24:27;95913.19;;;22.83;33.18
9525;BME280;15940;48.734;9.112;2023-04-22T10:26:56;95920.22;;;22.74;35.89
9525;BME280;15940;48.734;9.112;2023-04-22T10:29:25;95916.16;;;22.85;34.98
9525;BME280;15940;48.734;9.112;2023-04-22T10:31:56;95915.53;;;22.77;37.52
9525;BME280;15940;48.734;9.112;2023-04-22T10:34:31;95909.53;;;23.00;39.12
9525;BME280;15940;48.734;9.112;2023-04-22T10:37:00;95904.34;;;23.35;36.88
9525;BME280;15940;48.734;9.112;2023-04-22T10:39:29;95905.59;;;23.44;34.76
9525;BME280;15940;48.734;9.112;2023-04-22T10:42:06;95899.88;;;23.61;31.13
9525;BME280;15940;48.734;9.112;2023-04-22T10:44:50;95897.44;;;23.15;31.31
9525;BME280;15940;48.734;9.112;2023-04-22T10:47:28;95892.59;;;22.84;30.47
9525;BME280;15940;48.734;9.112;2023-04-22T10:50:30;95887.25;;;23.17;33.62
9525;BME280;15940;48.734;9.112;2023-04-22T10:53:00;95896.72;;;23.14;32.26
9525;BME280;15940;48.734;9.112;2023-04-22T10:55:52;95895.06;;;23.21;33.34
9525;BME280;15940;48.734;9.112;2023-04-22T10:58:22;95887.88;;;23.06;31.12
9525;BME280;15940;48.734;9.112;2023-04-22T11:00:52;95891.78;;;23.13;32.68
9525;BME280;15940;48.734;9.112;2023-04-22T11:03:26;95897.22;;;22.81;32.63
9525;BME280;15940;48.734;9.112;2023-04-22T11:06:15;95891.84;;;22.74;32.23
9525;BME280;15940;48.734;9.112;2023-04-22T11:08:45;95890.09;;;22.78;31.25
9525;BME280;15940;48.734;9.112;2023-04-22T11:11:16;95889.53;;;22.90;34.17
9525;BME280;15940;48.734;9.112;2023-04-22T11:13:43;95894.91;;;22.78;32.36
9525;BME280;15940;48.734;9.112;2023-04-22T11:16:12;95903.19;;;22.78;32.84
9525;BME280;15940;48.734;9.112;2023-04-22T11:18:39;95899.84;;;22.89;32.31
9525;BME280;15940;48.734;9.112;2023-04-22T11:21:06;95883.22;;;23.08;33.03
9525;BME280;15940;48.734;9.112;2023-04-22T11:23:34;95894.59;;;23.34;32.70
9525;BME280;15940;48.734;9.112;2023-04-22T11:26:04;95897.91;;;23.42;32.82
9525;BME280;15940;48.734;9.112;2023-04-22T11:28:33;95898.88;;;23.47;33.60
9525;BME280;15940;48.734;9.112;2023-04-22T11:31:05;95895.22;;;23.54;30.77
9525;BME280;15940;48.734;9.112;2023-04-22T11:33:33;95891.31;;;23.47;30.31
9525;BME280;15940;48.734;9.112;2023-04-22T11:36:00;95897.75;;;23.40;30.95
9525;BME280;15940;48.734;9.112;2023-04-22T11:38:27;95892.81;;;23.38;31.46
9525;BME280;15940;48.734;9.112;2023-04-22T11:40:55;95889.06;;;23.65;34.04
9525;BME280;15940;48.734;9.112;2023-04-22T11:43:23;95889.19;;;24.10;33.00
9525;BME280;15940;48.734;9.112;2023-04-22T11:45:54;95880.13;;;23.98;31.13
9525;BME280;15940;48.734;9.112;2023-04-22T11:48:22;95878.41;;;23.92;33.81
9525;BME280;15940;48.734;9.112;2023-04-22T11:51:07;95883.97;;;24.26;33.12
9525;BME280;15940;48.734;9.112;2023-04-22T11:53:35;95879.78;;;24.03;32.50
9525;BME280;15940;48.734;9.112;2023-04-22T11:56:04;95875.66;;;23.92;30.94
9525;BME280;15940;48.734;9.112;2023-04-22T11:58:31;95881.53;;;23.56;33.12
9525;BME280;15940;48.734;9.112;2023-04-22T12:00:59;95876.06;;;23.15;33.81
9525;BME280;15940;48.734;9.112;2023-04-22T12:03:28;95881.41;;;22.72;36.13
9525;BME280;15940;48.734;9.112;2023-04-22T12:05:56;95876.63;;;22.53;36.45
9525;BME280;15940;48.734;9.112;2023-04-22T12:08:29;95874.06;;;22.36;35.33
9525;BME280;15940;48.734;9.112;2023-04-22T12:10:59;95873.16;;;21.95;35.85
9525;BME280;15940;48.734;9.112;2023-04-22T12:13:30;95879.44;;;22.15;37.70
9525;BME280;15940;48.734;9.112;2023-04-22T12:16:01;95879.44;;;22.15;37.36
9525;BME280;15940;48.734;9.112;2023-04-22T12:18:29;95879.13;;;22.49;38.23
9525;BME280;15940;48.734;9.112;2023-04-22T12:21:01;95883.16;;;22.68;35.76
9525;BME280;15940;48.734;9.112;2023-04-22T12:23:40;95878.41;;;22.49;35.30
9525;BME280;15940;48.734;9.112;2023-04-22T12:26:08;95880.88;;;22.16;36.30
9525;BME280;15940;48.734;9.112;2023-04-22T12:28:37;95881.56;;;21.68;37.49
9525;BME280;15940;48.734;9.112;2023-04-22T12:31:05;95876.59;;;21.57;35.77
9525;BME280;15940;48.734;9.112;2023-04-22T12:33:33;95870.13;;;21.91;37.86
9525;BME280;15940;48.734;9.112;2023-04-22T12:36:00;95876.66;;;21.95;37.24
9525;BME280;15940;48.734;9.112;2023-04-22T12:38:27;95879.53;;;21.88;36.59
9525;BME280;15940;48.734;9.112;2023-04-22T12:40:55;95876.50;;;22.03;36.64
9525;BME280;15940;48.734;9.112;2023-04-22T12:43:22;95875.94;;;22.05;35.39
9525;BME280;15940;48.734;9.112;2023-04-22T12:45:49;95879.59;;;22.07;34.47
9525;BME280;15940;48.734;9.112;2023-04-22T12:48:17;95882.34;;;22.07;36.22
9525;BME280;15940;48.734;9.112;2023-04-22T12:50:44;95882.47;;;22.00;36.66
9525;BME280;15940;48.734;9.112;2023-04-22T12:53:11;95884.22;;;22.14;35.84
9525;BME280;15940;48.734;9.112;2023-04-22T12:55:38;95881.19;;;22.20;35.07
9525;BME280;15940;48.734;9.112;2023-04-22T12:58:06;95886.25;;;22.14;35.15
9525;BME280;15940;48.734;9.112;2023-04-22T13:00:33;95882.63;;;22.31;35.88
9525;BME280;15940;48.734;9.112;2023-04-22T13:03:00;95878.69;;;22.34;36.08
9525;BME280;15940;48.734;9.112;2023-04-22T13:05:28;95884.97;;;22.24;35.36
9525;BME280;15940;48.734;9.112;2023-04-22T13:07:55;95878.84;;;22.16;34.63
9525;BME280;15940;48.734;9.112;2023-04-22T13:10:22;95878.28;;;22.18;34.93
9525;BME280;15940;48.734;9.112;2023-04-22T13:12:53;95880.16;;;22.25;37.23
9525;BME280;15940;48.734;9.112;2023-04-22T13:15:20;95879.72;;;21.90;34.92
9525;BME280;15940;48.734;9.112;2023-04-22T13:17:47;95881.66;;;21.51;36.41
9525;BME280;15940;48.734;9.112;2023-04-22T13:20:14;95885.88;;;21.42;36.13
9525;BME280;15940;48.734;9.112;2023-04-22T13:22:42;95885.66;;;21.30;37.60
9525;BME280;15940;48.734;9.112;2023-04-22T13:25:10;95884.16;;;21.20;35.79
9525;BME280;15940;48.734;9.112;2023-04-22T13:27:37;95885.38;;;21.26;37.95
9525;BME280;15940;48.734;9.112;2023-04-22T13:30:07;95881.00;;;21.23;38.46